Time;durP1;ratioP1;P1;durP2;ratioP2;P2;SDS_P1;SDS_P2;PMS_P1;PMS_P2;Temp;Humidity;BMP_temperature;BMP_pressure;BME280_temperature;BME280_humidity;BME280_pressure;Samples;Min_cycle;Max_cycle;Signal;HPM_P1;HPM_P2
2022/12/03 00:00:41;;;;;;;97.85;27.08;;;;;;;-7.00;71.71;100989.50;4937725;28;20059;-78
2022/12/03 00:03:12;;;;;;;185.40;43.40;;;;;;;-6.96;71.36;100994.00;4948802;28;20235;-78
2022/12/03 00:05:44;;;;;;;108.93;30.73;;;;;;;-7.11;71.35;100959.97;4948644;28;20040;-77
2022/12/03 00:08:18;;;;;;;58.70;19.95;;;;;;;-6.83;70.92;100995.69;4948325;28;20040;-77
2022/12/03 00:10:49;;;;;;;79.03;28.65;;;;;;;-6.89;70.85;100981.69;4948206;28;20089;-77
2022/12/03 00:13:22;;;;;;;55.05;20.55;;;;;;;-6.97;71.01;100959.19;4943261;28;20281;-77
2022/12/03 00:15:52;;;;;;;41.42;18.17;;;;;;;-6.67;70.83;100972.13;4948780;28;20051;-77
2022/12/03 00:18:23;;;;;;;45.67;18.00;;;;;;;-6.57;70.67;100959.22;4948675;28;20040;-77
2022/12/03 00:20:54;;;;;;;37.30;16.10;;;;;;;-6.41;70.45;100961.06;4957718;28;20056;-78
2022/12/03 00:23:25;;;;;;;102.15;34.92;;;;;;;-6.23;70.01;100968.97;4964418;28;20043;-78
2022/12/03 00:25:55;;;;;;;55.88;20.42;;;;;;;-6.32;69.86;100935.31;4966795;28;20047;-79
2022/12/03 00:28:28;;;;;;;27.45;13.70;;;;;;;-6.13;69.45;100971.28;4967421;28;20039;-79
2022/12/03 00:30:59;;;;;;;50.67;19.10;;;;;;;-6.03;69.18;100964.22;4966322;28;20049;-80
2022/12/03 00:33:30;;;;;;;42.13;16.38;;;;;;;-5.93;69.29;100961.44;4962541;28;20109;-80
2022/12/03 00:36:01;;;;;;;52.17;18.48;;;;;;;-5.83;68.98;100952.69;4969295;28;20045;-80
2022/12/03 00:38:31;;;;;;;37.17;16.58;;;;;;;-5.55;68.87;100962.84;4967246;28;20056;-79
2022/12/03 00:41:02;;;;;;;43.78;16.17;;;;;;;-5.40;68.39;100933.19;4967130;28;20047;-78
2022/12/03 00:43:35;;;;;;;34.00;13.70;;;;;;;-5.27;68.44;100940.72;4967075;28;20056;-77
2022/12/03 00:46:06;;;;;;;25.52;11.88;;;;;;;-5.17;68.41;100941.28;4966811;28;20085;-79
2022/12/03 00:48:36;;;;;;;34.03;14.52;;;;;;;-5.13;67.81;100927.94;4966635;28;20069;-78
2022/12/03 00:51:08;;;;;;;29.50;12.75;;;;;;;-5.35;67.39;100921.59;4966517;28;20063;-79
2022/12/03 00:53:38;;;;;;;41.25;15.20;;;;;;;-5.32;67.75;100919.22;4966598;28;20080;-79
2022/12/03 00:56:09;;;;;;;34.47;14.68;;;;;;;-5.41;67.99;100926.34;4965440;28;20645;-82
2022/12/03 00:58:42;;;;;;;35.72;14.77;;;;;;;-5.33;68.30;100920.00;4971147;28;20056;-80
2022/12/03 01:01:12;;;;;;;33.22;14.45;;;;;;;-5.29;68.39;100911.78;4966829;28;20043;-79
2022/12/03 01:03:43;;;;;;;32.33;13.68;;;;;;;-5.00;68.50;100904.88;4966691;28;20044;-81
2022/12/03 01:06:14;;;;;;;37.72;15.40;;;;;;;-4.93;67.95;100901.91;4966651;28;20043;-80
2022/12/03 01:08:45;;;;;;;32.38;14.50;;;;;;;-4.98;67.71;100903.31;4966211;28;20047;-80
2022/12/03 01:14:05;;;;;;;34.90;14.32;;;;;;;-5.07;67.99;100883.28;4955248;28;20069;-78
2022/12/03 01:16:36;;;;;;;33.83;13.63;;;;;;;-5.09;68.12;100889.06;4966265;28;20035;-79
2022/12/03 01:19:07;;;;;;;43.95;16.85;;;;;;;-5.09;68.52;100896.72;4961015;28;20039;-79
2022/12/03 01:21:39;;;;;;;26.95;12.73;;;;;;;-4.98;68.91;100900.75;4963151;28;20055;-78
2022/12/03 01:24:10;;;;;;;35.55;13.40;;;;;;;-4.77;69.29;100893.41;4960130;28;20068;-78
2022/12/03 01:26:41;;;;;;;30.67;13.13;;;;;;;-4.60;68.95;100891.81;4964652;28;20041;-80
2022/12/03 01:29:14;;;;;;;31.67;13.30;;;;;;;-4.65;68.02;100888.13;4963658;28;20048;-79
2022/12/03 01:34:32;;;;;;;22.77;9.25;;;;;;;-4.61;68.76;100874.75;4946958;28;20093;-80
2022/12/03 01:37:03;;;;;;;18.50;8.73;;;;;;;-4.58;68.61;100874.91;4966322;28;20039;-80
2022/12/03 01:39:34;;;;;;;15.85;8.05;;;;;;;-4.38;69.30;100859.00;4965786;28;20056;-78
2022/12/03 01:42:05;;;;;;;17.48;6.85;;;;;;;-4.46;68.84;100844.97;4964717;28;20059;-78
2022/12/03 01:44:40;;;;;;;14.50;5.47;;;;;;;-4.48;68.76;100851.66;4965445;28;20051;-78
2022/12/03 01:47:15;;;;;;;15.90;7.28;;;;;;;-4.59;69.20;100824.72;4954930;28;20048;-80
2022/12/03 01:49:51;;;;;;;12.10;5.97;;;;;;;-4.32;68.78;100842.25;4965282;28;20107;-80
2022/12/03 01:52:27;;;;;;;11.90;5.45;;;;;;;-4.71;68.15;100775.63;4954980;28;20076;-82
2022/12/03 01:55:02;;;;;;;11.25;5.20;;;;;;;-4.32;68.91;100847.38;4953610;28;20201;-79
2022/12/03 01:57:40;;;;;;;20.08;7.47;;;;;;;-4.12;69.00;100841.63;4944064;28;20051;-78
2022/12/03 02:00:16;;;;;;;10.93;4.68;;;;;;;-4.03;68.03;100839.56;4945854;28;20055;-78
2022/12/03 02:02:49;;;;;;;11.88;5.00;;;;;;;-4.41;67.96;100792.53;4956305;28;20047;-78
2022/12/03 02:05:22;;;;;;;11.82;5.85;;;;;;;-4.34;68.08;100825.22;4956900;28;20052;-80
2022/12/03 02:07:54;;;;;;;10.90;5.32;;;;;;;-4.24;67.63;100840.97;4956709;28;20047;-77
2022/12/03 02:10:38;;;;;;;13.35;5.75;;;;;;;-4.43;67.73;100799.22;4951435;28;20105;-78
2022/12/03 02:13:10;;;;;;;14.07;6.22;;;;;;;-4.40;67.48;100819.78;4962018;28;20055;-79
2022/12/03 02:15:43;;;;;;;11.20;5.53;;;;;;;-4.40;67.96;100813.78;4951025;28;20477;-80
2022/12/03 02:18:14;;;;;;;11.23;5.50;;;;;;;-4.30;67.55;100821.13;4954408;28;20048;-77
2022/12/03 02:20:54;;;;;;;12.70;5.15;;;;;;;-4.38;67.45;100813.09;4950749;28;20047;-81
2022/12/03 02:23:33;;;;;;;14.35;6.53;;;;;;;-4.26;67.85;100811.97;4939375;28;20047;-79
2022/12/03 02:26:06;;;;;;;15.48;5.47;;;;;;;-4.41;67.98;100812.94;4946878;28;20040;-80
2022/12/03 02:28:36;;;;;;;11.77;4.70;;;;;;;-4.53;67.52;100807.19;4947574;28;20286;-80
2022/12/03 02:31:07;;;;;;;10.90;4.32;;;;;;;-4.61;67.56;100803.34;4947911;28;20077;-80
2022/12/03 02:33:39;;;;;;;8.65;4.00;;;;;;;-4.66;67.58;100797.13;4962193;28;20088;-82
2022/12/03 02:36:12;;;;;;;8.60;4.13;;;;;;;-4.51;67.55;100780.09;4949780;28;20087;-81
2022/12/03 02:38:43;;;;;;;6.97;3.95;;;;;;;-4.19;67.31;100773.22;4951444;28;20093;-80
2022/12/03 02:44:04;;;;;;;8.23;4.07;;;;;;;-4.39;66.90;100752.66;4932581;28;20063;-81
2022/12/03 02:46:36;;;;;;;6.65;3.63;;;;;;;-4.24;66.54;100756.78;4945945;28;20051;-80
2022/12/03 02:49:12;;;;;;;8.52;3.88;;;;;;;-4.29;66.57;100750.56;4954817;28;20332;-81
2022/12/03 02:51:47;;;;;;;9.02;4.15;;;;;;;-4.32;66.59;100750.41;4947210;28;20043;-81
2022/12/03 02:54:18;;;;;;;7.18;3.90;;;;;;;-4.30;66.30;100753.94;4955004;28;20050;-80
2022/12/03 02:56:51;;;;;;;10.02;4.13;;;;;;;-4.29;66.84;100746.38;4947529;28;20056;-82
2022/12/03 02:59:22;;;;;;;8.85;3.95;;;;;;;-4.26;66.40;100735.44;4951411;28;20044;-80
2022/12/03 03:01:53;;;;;;;7.47;4.60;;;;;;;-4.03;66.38;100752.75;4951540;28;20044;-81
2022/12/03 03:04:24;;;;;;;9.35;4.18;;;;;;;-4.20;65.72;100745.94;4966137;28;20287;-80
2022/12/03 03:06:55;;;;;;;9.77;4.32;;;;;;;-4.36;65.53;100755.38;4953849;28;20374;-80
2022/12/03 03:09:26;;;;;;;11.23;5.15;;;;;;;-4.50;65.76;100741.00;4957555;28;20498;-80
2022/12/03 03:11:59;;;;;;;18.15;7.35;;;;;;;-4.38;65.90;100756.97;4953006;28;20073;-80
2022/12/03 03:14:29;;;;;;;13.90;5.90;;;;;;;-4.17;67.11;100738.44;4950491;28;20124;-79
2022/12/03 03:17:00;;;;;;;12.20;5.35;;;;;;;-4.04;66.81;100738.25;4967504;28;20042;-81
2022/12/03 03:19:31;;;;;;;11.88;4.63;;;;;;;-4.06;66.16;100739.84;4963049;28;20059;-79
2022/12/03 03:22:02;;;;;;;10.05;5.05;;;;;;;-3.80;66.33;100738.56;4958095;28;20051;-80
2022/12/03 03:24:33;;;;;;;13.57;5.60;;;;;;;-3.47;65.67;100754.69;4962045;28;20064;-81
2022/12/03 03:27:07;;;;;;;9.23;4.30;;;;;;;-3.27;64.96;100752.16;4953064;28;20052;-81
2022/12/03 03:29:38;;;;;;;7.72;3.58;;;;;;;-3.24;63.52;100742.13;4953974;28;20213;-81
2022/12/03 03:32:08;;;;;;;5.90;3.28;;;;;;;-3.23;62.98;100754.06;4954112;28;20051;-81
2022/12/03 03:34:40;;;;;;;8.50;4.22;;;;;;;-3.11;63.58;100749.53;4955328;28;20056;-81
2022/12/03 03:37:11;;;;;;;9.43;4.22;;;;;;;-3.29;62.58;100748.69;4964399;28;20907;-80
2022/12/03 03:39:42;;;;;;;8.77;4.20;;;;;;;-3.31;62.43;100745.19;4962137;28;20051;-81
2022/12/03 03:42:14;;;;;;;10.15;4.32;;;;;;;-3.48;62.91;100726.50;4956197;28;20212;-82
2022/12/03 03:44:46;;;;;;;11.73;4.07;;;;;;;-3.63;61.22;100716.41;4964316;28;20114;-80
2022/12/03 03:47:18;;;;;;;4.38;2.75;;;;;;;-3.80;58.46;100712.19;4950663;28;20055;-80
2022/12/03 03:49:49;;;;;;;7.88;3.45;;;;;;;-3.94;58.63;100725.16;4948131;28;20044;-80
2022/12/03 03:52:21;;;;;;;14.68;5.38;;;;;;;-4.17;58.53;100706.16;4946025;28;20049;-80
2022/12/03 03:54:52;;;;;;;13.20;4.90;;;;;;;-4.28;57.63;100721.72;4958285;28;20117;-81
2022/12/03 03:57:25;;;;;;;48.92;18.48;;;;;;;-4.23;58.44;100730.47;4959739;28;20113;-80
2022/12/03 03:59:55;;;;;;;17.17;8.73;;;;;;;-4.32;57.87;100735.09;4958167;28;20054;-80
2022/12/03 04:02:28;;;;;;;14.85;5.60;;;;;;;-4.42;57.74;100729.56;4951787;28;20349;-80
2022/12/03 04:05:01;;;;;;;10.82;4.50;;;;;;;-4.52;58.16;100691.59;4952363;28;20309;-80
2022/12/03 04:07:32;;;;;;;3.83;2.38;;;;;;;-4.47;57.54;100710.56;4957783;28;20121;-80
2022/12/03 04:12:54;;;;;;;4.53;2.30;;;;;;;-4.44;56.79;100710.75;4955835;28;20051;-79
2022/12/03 04:12:54;;;;;;;7.57;2.72;;;;;;;-4.44;56.55;100695.44;4946265;28;20070;-80
2022/12/03 04:15:26;;;;;;;6.63;3.22;;;;;;;-4.51;56.85;100693.38;4956282;28;20360;-80
2022/12/03 04:20:44;;;;;;;4.40;2.30;;;;;;;-4.48;55.82;100677.34;4948081;28;20047;-79
2022/12/03 04:23:14;;;;;;;11.70;3.50;;;;;;;-4.53;54.67;100689.00;4956188;28;20307;-79
2022/12/03 04:28:52;;;;;;;6.38;2.55;;;;;;;-4.60;55.91;100677.59;4952602;28;20119;-78
2022/12/03 04:36:58;;;;;;;4.00;2.47;;;;;;;-4.55;55.54;100660.84;4948654;28;20107;-79
2022/12/03 04:39:28;;;;;;;3.55;2.10;;;;;;;-4.50;55.61;100659.41;4956455;28;20047;-79
2022/12/03 04:41:59;;;;;;;5.15;2.38;;;;;;;-4.35;56.98;100678.03;4957988;28;20048;-77
2022/12/03 04:44:38;;;;;;;5.45;2.90;;;;;;;-4.40;56.49;100661.63;4962070;28;20053;-79
2022/12/03 04:47:11;;;;;;;4.38;2.10;;;;;;;-4.39;56.66;100642.97;4954862;28;20656;-79
2022/12/03 04:49:44;;;;;;;4.25;2.40;;;;;;;-4.19;56.00;100678.81;4958556;28;20198;-79
2022/12/03 04:52:16;;;;;;;5.38;2.30;;;;;;;-4.35;56.33;100639.75;4949085;28;20074;-80
2022/12/03 04:54:47;;;;;;;5.15;2.55;;;;;;;-4.12;55.67;100678.28;4947777;28;20052;-77
2022/12/03 04:57:17;;;;;;;5.72;2.45;;;;;;;-4.29;56.43;100643.41;4947611;28;20105;-78
2022/12/03 04:59:53;;;;;;;2.65;1.85;;;;;;;-4.36;55.01;100662.66;4942419;28;20053;-80
2022/12/03 05:02:24;;;;;;;9.80;3.90;;;;;;;-4.29;56.33;100674.03;4947523;28;20125;-79
2022/12/03 05:04:55;;;;;;;7.03;3.30;;;;;;;-4.36;56.36;100663.53;4947024;28;20248;-80
2022/12/03 05:07:25;;;;;;;4.93;2.53;;;;;;;-4.46;56.15;100661.31;4947310;28;20048;-79
2022/12/03 05:09:56;;;;;;;5.43;2.70;;;;;;;-4.45;55.67;100673.25;4954603;28;20082;-81
2022/12/03 05:12:27;;;;;;;6.22;2.42;;;;;;;-4.66;55.59;100652.66;4966163;28;20051;-81
2022/12/03 05:14:59;;;;;;;5.68;2.40;;;;;;;-4.63;56.12;100672.34;4966142;28;20115;-81
2022/12/03 05:17:30;;;;;;;8.20;2.40;;;;;;;-4.52;56.49;100686.50;4960649;28;20090;-82
2022/12/03 05:22:48;;;;;;;6.70;2.50;;;;;;;-4.58;56.95;100693.84;4955754;28;20061;-79
2022/12/03 05:25:19;;;;;;;3.78;2.08;;;;;;;-4.63;56.58;100692.75;4964645;28;20691;-80
2022/12/03 05:27:50;;;;;;;6.70;2.45;;;;;;;-4.71;56.44;100694.03;4972224;28;20049;-79
2022/12/03 05:30:22;;;;;;;2.55;1.92;;;;;;;-4.85;57.49;100676.31;4969234;28;20055;-78
2022/12/03 05:33:01;;;;;;;4.10;2.50;;;;;;;-4.71;57.50;100686.38;4971063;22;20062;-59
2022/12/03 05:36:02;;;;;;;17.42;7.70;;;;;;;-4.70;57.70;100695.75;4855018;28;20045;-61
2022/12/03 05:39:06;;;;;;;6.03;2.78;;;;;;;-4.77;57.84;100695.47;4861908;28;20255;-60
2022/12/03 05:51:27;;;;;;;5.53;2.90;;;;;;;-4.93;58.35;100713.28;4838238;28;20037;-61
2022/12/03 05:54:19;;;;;;;6.13;2.80;;;;;;;-5.03;58.56;100711.03;4902869;28;20085;-58
2022/12/03 06:00:16;;;;;;;7.68;3.08;;;;;;;-5.24;58.78;100698.91;4888993;28;20037;-61
2022/12/03 06:03:13;;;;;;;13.48;3.25;;;;;;;-5.23;58.71;100702.34;4822194;28;20049;-60
2022/12/03 06:06:12;;;;;;;12.32;4.15;;;;;;;-5.23;58.21;100705.75;4862720;28;20210;-59
2022/12/03 06:11:55;;;;;;;6.10;2.72;;;;;;;-5.38;59.37;100702.38;4900153;28;20213;-60
2022/12/03 06:14:33;;;;;;;5.75;2.85;;;;;;;-5.65;58.95;100671.19;4820502;28;20041;-60
2022/12/03 06:17:24;;;;;;;11.75;3.92;;;;;;;-5.63;58.47;100683.22;4862865;28;20042;-60
2022/12/03 06:20:25;;;;;;;14.88;5.75;;;;;;;-5.85;58.16;100663.31;4880619;28;20050;-60
2022/12/03 06:23:26;;;;;;;26.40;9.32;;;;;;;-6.14;58.72;100628.69;4893685;28;20049;-59
2022/12/03 06:26:31;;;;;;;21.35;7.88;;;;;;;-6.11;60.15;100663.56;4872974;28;20045;-60
2022/12/03 06:31:53;;;;;;;12.43;5.10;;;;;;;-6.47;62.92;100637.78;4878445;28;20107;-60
2022/12/03 06:34:27;;;;;;;13.35;5.30;;;;;;;-6.68;64.36;100637.44;4893438;28;20041;-60
2022/12/03 06:37:12;;;;;;;15.90;5.70;;;;;;;-6.82;65.80;100634.06;4892634;28;20109;-60
2022/12/03 06:42:58;;;;;;;8.10;3.78;;;;;;;-7.23;67.20;100580.81;4884390;28;20038;-61
2022/12/03 06:45:32;;;;;;;7.05;4.13;;;;;;;-6.99;67.80;100638.16;4881857;28;20152;-60
2022/12/03 06:48:26;;;;;;;11.05;4.55;;;;;;;-7.02;67.91;100634.53;4873511;28;20345;-60
2022/12/03 06:51:08;;;;;;;13.98;5.68;;;;;;;-7.03;68.60;100623.53;4875152;28;20050;-59
2022/12/03 06:54:05;;;;;;;12.93;5.32;;;;;;;-6.96;68.86;100624.78;4868274;28;20072;-59
2022/12/03 06:57:04;;;;;;;12.48;5.82;;;;;;;-6.92;69.34;100633.44;4851210;28;20056;-59
2022/12/03 06:59:47;;;;;;;12.68;6.30;;;;;;;-6.86;69.56;100636.31;4860955;28;20268;-60
2022/12/03 07:02:43;;;;;;;18.83;6.97;;;;;;;-6.85;70.30;100638.97;4856287;28;20050;-59
2022/12/03 07:05:24;;;;;;;13.77;6.90;;;;;;;-6.84;70.69;100629.69;4848215;28;20042;-59
2022/12/03 07:11:29;;;;;;;22.80;7.22;;;;;;;-7.05;70.61;100614.91;4849171;28;20046;-59
2022/12/03 07:18:09;;;;;;;24.90;13.55;;;;;;;-7.14;72.11;100604.19;4782661;28;20198;-59
2022/12/03 07:21:29;;;;;;;;;;;;;;;-7.11;72.04;100604.41;4789291;29;20043;-60
2022/12/03 07:32:44;;;;;;;11.60;5.95;;;;;;;-7.41;72.27;100586.56;4667758;29;20046;-60
2022/12/03 07:59:56;;;;;;;8.93;4.50;;;;;;;-7.84;71.71;100576.31;4606528;30;20079;-59
2022/12/03 08:10:53;;;;;;;3.45;2.42;;;;;;;-7.65;70.67;100547.88;4661669;30;20061;-61
2022/12/03 08:13:39;;;;;;;6.28;2.25;;;;;;;-7.75;70.16;100514.22;4658883;29;20261;-60
2022/12/03 08:16:23;;;;;;;5.30;2.40;;;;;;;-7.54;70.15;100534.94;4694752;29;20528;-60
2022/12/03 08:19:25;;;;;;;6.32;2.47;;;;;;;-7.51;70.13;100520.78;4745260;29;20171;-61
2022/12/03 08:22:34;;;;;;;5.20;2.30;;;;;;;-7.74;69.21;100483.00;4694517;29;20143;-61
2022/12/03 09:05:36;;;;;;;55.90;20.35;;;;;;;-7.87;71.73;100456.88;4438128;31;20319;-61
2022/12/03 09:08:13;;;;;;;24.40;9.98;;;;;;;-8.30;72.53;100411.19;4551571;30;20089;-61
2022/12/03 09:10:51;;;;;;;28.20;9.27;;;;;;;-8.13;72.52;100454.47;4608599;29;20054;-61
2022/12/03 09:17:00;;;;;;;50.63;17.20;;;;;;;-8.31;72.97;100454.16;4651088;29;20054;-59
2022/12/03 09:19:35;;;;;;;61.30;18.75;;;;;;;-8.39;73.20;100451.16;4684172;29;20465;-60
2022/12/03 09:22:31;;;;;;;61.60;19.00;;;;;;;-8.38;73.33;100442.81;4720907;29;20056;-60
2022/12/03 09:25:28;;;;;;;49.28;14.90;;;;;;;-8.52;73.21;100428.44;4715226;29;20066;-62
2022/12/03 09:28:17;;;;;;;29.13;8.98;;;;;;;-8.80;72.81;100403.91;4717587;28;20055;-62
2022/12/03 09:30:52;;;;;;;23.25;7.22;;;;;;;-9.08;72.81;100348.13;4803359;28;20376;-61
2022/12/03 09:33:43;;;;;;;15.70;7.18;;;;;;;-8.61;73.08;100432.91;4794513;28;20055;-62
2022/12/03 09:36:27;;;;;;;18.67;7.70;;;;;;;-9.09;72.96;100360.69;4799048;28;20095;-62
2022/12/03 09:39:04;;;;;;;15.18;7.47;;;;;;;-9.20;73.26;100350.75;4858893;28;20928;-62
2022/12/03 09:41:56;;;;;;;19.00;8.20;;;;;;;-8.92;73.74;100420.84;4831857;28;20323;-62
2022/12/03 09:47:44;;;;;;;11.07;5.97;;;;;;;-9.22;73.38;100392.78;4819860;28;20056;-61
2022/12/03 09:50:40;;;;;;;17.65;6.90;;;;;;;-9.35;73.95;100407.97;4824398;28;20068;-62
2022/12/03 09:53:43;;;;;;;27.25;10.45;;;;;;;-10.22;74.56;100264.06;4838668;28;20049;-62
2022/12/03 09:56:50;;;;;;;78.07;25.65;;;;;;;-9.51;74.91;100390.03;4735106;29;20053;-61
2022/12/03 10:05:51;;;;;;;198.05;57.80;;;;;;;-9.70;75.38;100377.84;4718655;29;20063;-62
2022/12/03 10:08:41;;;;;;;154.88;45.17;;;;;;;-9.78;75.61;100379.88;4711553;29;20054;-62
2022/12/03 10:11:26;;;;;;;117.00;35.83;;;;;;;-9.86;75.77;100366.72;4700316;29;20127;-61
2022/12/03 10:14:37;;;;;;;137.95;41.20;;;;;;;-9.85;76.73;100357.47;4721402;29;20100;-61
2022/12/03 10:17:53;;;;;;;;;;;;;;;;;;;;;
2022/12/03 10:20:44;;;;;;;292.83;75.50;;;;;;;-9.96;76.92;100343.25;4703779;29;20054;-60
2022/12/03 10:23:32;;;;;;;322.70;78.60;;;;;;;-10.03;76.64;100347.91;4692785;29;20068;-61
2022/12/03 10:30:27;;;;;;;;;;;;;;;;;;;;;
2022/12/03 10:33:22;;;;;;;16.67;5.57;;;;;;;-10.56;75.54;100304.75;4628350;29;20048;-62
2022/12/03 10:36:24;;;;;;;8.10;4.75;;;;;;;-10.61;75.81;100323.78;4645710;29;20116;-61
2022/12/03 10:39:13;;;;;;;10.75;6.03;;;;;;;-10.86;75.60;100317.06;4645762;29;20059;-62
2022/12/03 10:41:55;;;;;;;33.83;16.60;;;;;;;-11.67;75.63;100212.13;4652300;29;20108;-62
2022/12/03 10:44:29;;;;;;;27.98;10.02;;;;;;;-11.40;75.85;100294.75;4649423;29;20071;-62
2022/12/03 10:47:26;;;;;;;;;;;;;;;;;;;;;
2022/12/03 10:50:17;;;;;;;49.65;25.25;;;;;;;-11.70;77.19;100293.44;4666350;29;20050;-60
2022/12/03 10:56:56;;;;;;;14.95;6.18;;;;;;;-11.94;78.28;100272.41;4652977;29;20235;-61
2022/12/03 10:59:35;;;;;;;77.38;20.02;;;;;;;-11.79;78.34;100288.59;4652277;29;20051;-62
2022/12/03 11:02:26;;;;;;;107.50;30.75;;;;;;;-11.78;78.66;100285.31;4643351;29;20260;-61
2022/12/03 11:05:06;;;;;;;86.63;26.45;;;;;;;-11.87;78.61;100299.81;4682397;29;20082;-61
2022/12/03 11:07:51;;;;;;;40.50;15.30;;;;;;;-12.00;78.72;100279.53;4794899;28;20048;-61
2022/12/03 11:13:59;;;;;;;14.40;8.30;;;;;;;-12.02;79.17;100258.38;4596067;27;15799263;-86
2022/12/03 11:17:12;;;;;;;16.88;8.23;;;;;;;-11.82;79.64;100262.31;5172810;27;20079;-86
2022/12/03 11:19:49;;;;;;;13.98;6.60;;;;;;;-11.85;79.83;100237.78;5169914;27;20309;-86
2022/12/03 11:22:44;;;;;;;10.68;6.03;;;;;;;-11.70;79.45;100257.25;5174086;27;20062;-86
2022/12/03 11:25:50;;;;;;;12.18;5.18;;;;;;;-11.80;79.34;100249.06;5175808;27;20502;-86
2022/12/03 11:28:36;;;;;;;6.97;4.38;;;;;;;-11.81;79.28;100244.75;5170052;27;20092;-82
2022/12/03 11:31:35;;;;;;;11.48;5.57;;;;;;;-12.00;78.63;100221.59;5177479;27;20042;-84
2022/12/03 11:34:42;;;;;;;233.98;121.00;;;;;;;-12.37;78.38;100203.78;5176241;27;20047;-85
2022/12/03 11:37:30;;;;;;;111.78;52.22;;;;;;;-12.40;78.74;100229.63;5115795;28;20455;-84
2022/12/03 11:40:33;;;;;;;101.43;36.78;;;;;;;-12.62;79.34;100196.94;5116179;28;20059;-84
2022/12/03 11:43:11;;;;;;;174.82;59.08;;;;;;;-12.44;79.79;100231.78;5114143;28;20039;-81
2022/12/03 11:45:43;;;;;;;71.60;26.95;;;;;;;-12.48;80.21;100222.25;5115680;28;20268;-82
2022/12/03 11:48:17;;;;;;;48.80;17.35;;;;;;;-12.67;80.48;100193.22;5115822;28;20142;-83
2022/12/03 11:50:53;;;;;;;97.75;31.25;;;;;;;-12.38;80.82;100217.13;5116239;28;20044;-83
2022/12/03 11:53:27;;;;;;;83.88;30.55;;;;;;;-12.33;80.80;100225.03;5115333;28;20079;-83
2022/12/03 11:56:07;;;;;;;55.60;22.48;;;;;;;-12.32;80.77;100197.44;5115538;28;20110;-85
2022/12/03 11:58:44;;;;;;;26.40;12.20;;;;;;;-12.28;80.93;100189.38;5109436;28;20086;-83
2022/12/03 12:01:33;;;;;;;158.90;32.15;;;;;;;-12.09;80.74;100190.69;5117297;28;20401;-85
2022/12/03 12:04:47;;;;;;;266.55;50.25;;;;;;;-12.45;80.19;100154.53;5115445;28;20055;-84
2022/12/03 12:07:31;;;;;;;;;;;;;;;-12.07;80.66;100192.53;5121520;27;20062;-83
2022/12/03 12:10:04;;;;;;;216.40;47.55;;;;;;;-12.28;80.63;100149.06;5170722;27;19931;-85
2022/12/03 12:12:41;;;;;;;180.65;44.35;;;;;;;-12.30;80.79;100125.41;5168395;27;20054;-85
2022/12/03 12:15:50;;;;;;;90.88;25.65;;;;;;;-11.87;80.35;100177.97;5163499;27;20078;-84
2022/12/03 12:18:40;;;;;;;32.78;12.63;;;;;;;-11.85;80.00;100177.28;5143563;27;20080;-84
2022/12/03 12:21:46;;;;;;;16.33;5.65;;;;;;;-11.83;79.47;100189.97;5171589;27;20270;-83
2022/12/03 12:24:39;;;;;;;10.95;5.28;;;;;;;-12.05;78.87;100185.13;5162982;27;20059;-82
2022/12/03 12:27:12;;;;;;;15.60;6.95;;;;;;;-12.09;78.45;100195.72;5153828;27;20261;-83
2022/12/03 12:29:46;;;;;;;12.45;6.55;;;;;;;-12.26;78.10;100157.59;5164288;27;20066;-83
2022/12/03 12:32:21;;;;;;;14.95;6.20;;;;;;;-12.13;78.02;100178.63;5153035;27;20284;-83
2022/12/03 12:34:59;;;;;;;14.85;6.93;;;;;;;-12.18;77.65;100166.59;5157209;27;20116;-82
2022/12/03 12:37:36;;;;;;;20.75;8.48;;;;;;;-12.00;77.29;100186.31;5090735;27;20088;-82
2022/12/03 12:40:16;;;;;;;33.20;10.57;;;;;;;-11.88;77.98;100162.00;5065003;28;20129;-83
2022/12/03 12:42:53;;;;;;;25.65;9.82;;;;;;;-11.72;78.81;100144.59;4933431;27;20073;-82
2022/12/03 12:45:40;;;;;;;23.75;10.05;;;;;;;-11.32;78.70;100154.94;4934520;28;20052;-84
2022/12/03 12:48:21;;;;;;;18.20;7.57;;;;;;;-11.14;78.66;100182.19;4945000;27;20099;-83
2022/12/03 12:51:00;;;;;;;20.55;7.40;;;;;;;-11.26;77.94;100167.06;4921416;28;20120;-82
2022/12/03 12:53:35;;;;;;;19.65;7.57;;;;;;;-11.27;77.92;100169.50;4931068;28;20044;-82
2022/12/03 12:56:18;;;;;;;17.92;7.93;;;;;;;-11.40;78.22;100133.34;4924465;28;20046;-81
2022/12/03 12:58:49;;;;;;;19.65;8.30;;;;;;;-11.15;78.63;100145.13;4932334;28;20228;-82
2022/12/03 13:01:25;;;;;;;20.92;8.15;;;;;;;-11.36;78.47;100089.91;4925514;28;20111;-82
2022/12/03 13:03:57;;;;;;;24.42;8.73;;;;;;;-11.01;78.37;100149.44;4916687;28;20298;-83
2022/12/03 13:06:31;;;;;;;19.98;10.30;;;;;;;-11.01;78.37;100126.72;4936394;28;20047;-82
2022/12/03 13:09:09;;;;;;;27.63;10.85;;;;;;;-10.91;78.35;100136.66;4944479;27;20060;-83
2022/12/03 13:11:45;;;;;;;35.42;11.80;;;;;;;-11.12;78.06;100115.03;4916492;28;20048;-84
2022/12/03 13:14:19;;;;;;;36.30;11.13;;;;;;;-10.67;78.06;100142.44;4918712;28;20093;-82
2022/12/03 13:16:51;;;;;;;27.73;10.35;;;;;;;-11.34;77.76;100005.16;4938219;28;20313;-80
2022/12/03 13:19:26;;;;;;;34.80;12.18;;;;;;;-10.63;77.85;100118.28;4941942;28;20040;-82
2022/12/03 13:22:30;;;;;;;26.17;9.82;;;;;;;-10.79;77.94;100078.53;4913170;28;20053;-82
2022/12/03 13:29:18;;;;;;;22.88;10.30;;;;;;;-10.35;78.66;100064.50;4832639;28;20064;-83
2022/12/03 13:31:55;;;;;;;29.75;10.85;;;;;;;-9.91;79.13;100104.28;4842855;28;20333;-83
2022/12/03 13:34:27;;;;;;;23.70;9.93;;;;;;;-10.11;78.10;100081.16;4861450;28;20111;-82
2022/12/03 13:37:01;;;;;;;26.70;10.68;;;;;;;-9.80;77.95;100099.09;4866011;28;20149;-83
2022/12/03 13:39:36;;;;;;;22.55;9.95;;;;;;;-9.85;78.14;100076.84;4861338;28;20424;-83
2022/12/03 13:42:40;;;;;;;28.25;10.93;;;;;;;-9.61;78.03;100096.06;4853812;28;20206;-83
2022/12/03 13:45:33;;;;;;;33.08;10.98;;;;;;;-9.75;77.76;100053.88;4850972;28;20046;-83
2022/12/03 13:48:14;;;;;;;33.60;12.52;;;;;;;-9.55;78.01;100066.06;4867135;28;20057;-83
2022/12/03 13:50:54;;;;;;;33.42;12.15;;;;;;;-9.37;78.31;100045.19;4914167;28;20307;-81
2022/12/03 13:53:28;;;;;;;33.05;12.18;;;;;;;-9.30;78.08;100037.19;4912185;28;20053;-82
2022/12/03 13:56:25;;;;;;;36.90;13.80;;;;;;;-9.08;78.17;100043.47;4926461;28;20257;-82
2022/12/03 13:59:03;;;;;;;53.20;17.23;;;;;;;-9.13;77.85;100015.38;4908049;28;20345;-82
2022/12/03 14:01:41;;;;;;;28.27;10.35;;;;;;;-8.99;77.89;100038.94;4920312;28;20055;-81
2022/12/03 14:04:13;;;;;;;24.73;9.30;;;;;;;-8.99;78.23;100044.00;4915671;28;20400;-83
2022/12/03 14:06:54;;;;;;;20.73;9.00;;;;;;;-8.95;78.83;100026.56;4915076;28;20150;-82
2022/12/03 14:09:25;;;;;;;21.90;9.10;;;;;;;-8.83;79.10;100016.28;4926441;28;20052;-81
2022/12/03 14:12:32;;;;;;;20.67;9.32;;;;;;;-8.88;79.26;100012.59;4922622;28;20056;-82
2022/12/03 14:15:11;;;;;;;18.33;8.52;;;;;;;-8.78;79.79;100030.06;4921748;28;20048;-81
2022/12/03 14:17:48;;;;;;;17.83;8.02;;;;;;;-8.80;79.53;100026.56;4928102;28;20045;-82
2022/12/03 14:20:20;;;;;;;19.52;7.95;;;;;;;-8.83;80.06;100000.22;4911729;28;20045;-82
2022/12/03 14:22:51;;;;;;;20.23;8.10;;;;;;;-8.65;80.40;100002.91;4930303;28;20314;-82
2022/12/03 14:25:30;;;;;;;16.30;7.22;;;;;;;-8.62;80.49;100008.13;4919840;28;20040;-82
2022/12/03 14:28:11;;;;;;;;;;;;;;;;;;;;;
2022/12/03 14:30:58;;;;;;;17.75;7.90;;;;;;;-8.53;80.46;100001.91;4921489;28;20252;-82
2022/12/03 14:33:53;;;;;;;21.33;7.50;;;;;;;-9.91;80.44;99766.41;4913406;28;20220;-82
2022/12/03 14:36:24;;;;;;;21.25;8.10;;;;;;;-8.39;80.94;100000.09;4928131;28;20071;-81
2022/12/03 14:38:56;;;;;;;18.95;7.68;;;;;;;-8.36;81.29;99969.88;4925505;28;20089;-82
2022/12/03 14:44:25;;;;;;;22.10;9.70;;;;;;;-8.18;81.14;99974.19;4912793;28;20104;-61
2022/12/03 14:47:39;;;;;;;22.17;8.45;;;;;;;-8.11;81.10;99968.63;4892316;28;20108;-61
2022/12/03 14:50:15;;;;;;;15.68;7.50;;;;;;;-8.09;81.37;99951.84;4913442;28;20057;-61
2022/12/03 14:53:05;;;;;;;11.90;6.00;;;;;;;-7.94;82.02;99945.03;4904828;28;20048;-61
2022/12/03 14:55:59;;;;;;;13.02;4.72;;;;;;;-7.94;82.09;99936.56;4874058;28;20046;-61
2022/12/03 14:58:51;;;;;;;8.50;4.07;;;;;;;-7.75;82.75;99934.19;4881419;28;20164;-61
2022/12/03 15:01:41;;;;;;;5.80;3.58;;;;;;;-7.70;82.91;99906.50;4842185;28;20469;-61